sensor_id;sensor_type;location;lat;lon;timestamp;P1;durP1;ratioP1;P2;durP2;ratioP2
72728;SDS011;60843;52.062;4.508;2022-12-20T00:00:49;6.80;;;2.40;;
72728;SDS011;60843;52.062;4.508;2022-12-20T00:03:15;5.35;;;1.63;;
72728;SDS011;60843;52.062;4.508;2022-12-20T00:05:41;3.13;;;1.88;;
72728;SDS011;60843;52.062;4.508;2022-12-20T00:08:07;4.93;;;1.92;;
72728;SDS011;60843;52.062;4.508;2022-12-20T00:10:36;2.80;;;1.80;;
72728;SDS011;60843;52.062;4.508;2022-12-20T00:13:03;3.70;;;2.30;;
72728;SDS011;60843;52.062;4.508;2022-12-20T00:15:28;2.88;;;1.80;;
72728;SDS011;60843;52.062;4.508;2022-12-20T00:17:55;3.80;;;2.70;;
72728;SDS011;60843;52.062;4.508;2022-12-20T00:20:20;6.85;;;1.88;;
72728;SDS011;60843;52.062;4.508;2022-12-20T00:22:46;4.30;;;2.00;;
72728;SDS011;60843;52.062;4.508;2022-12-20T00:25:11;13.25;;;2.05;;
72728;SDS011;60843;52.062;4.508;2022-12-20T00:27:36;4.30;;;2.00;;
72728;SDS011;60843;52.062;4.508;2022-12-20T00:30:02;3.50;;;1.93;;
72728;SDS011;60843;52.062;4.508;2022-12-20T00:32:28;3.65;;;1.77;;
72728;SDS011;60843;52.062;4.508;2022-12-20T00:34:53;3.53;;;1.67;;
72728;SDS011;60843;52.062;4.508;2022-12-20T00:37:19;5.30;;;2.00;;
72728;SDS011;60843;52.062;4.508;2022-12-20T00:39:44;3.60;;;1.70;;
72728;SDS011;60843;52.062;4.508;2022-12-20T00:42:10;4.03;;;2.30;;
72728;SDS011;60843;52.062;4.508;2022-12-20T00:44:35;3.70;;;1.90;;
72728;SDS011;60843;52.062;4.508;2022-12-20T00:47:00;3.97;;;1.80;;
72728;SDS011;60843;52.062;4.508;2022-12-20T00:49:26;6.22;;;2.50;;
72728;SDS011;60843;52.062;4.508;2022-12-20T00:51:51;5.17;;;2.10;;
72728;SDS011;60843;52.062;4.508;2022-12-20T00:54:17;3.87;;;2.23;;
72728;SDS011;60843;52.062;4.508;2022-12-20T00:56:42;4.15;;;2.05;;
72728;SDS011;60843;52.062;4.508;2022-12-20T00:59:07;6.20;;;2.27;;
72728;SDS011;60843;52.062;4.508;2022-12-20T01:01:33;7.60;;;2.23;;
72728;SDS011;60843;52.062;4.508;2022-12-20T01:03:59;5.65;;;2.30;;
72728;SDS011;60843;52.062;4.508;2022-12-20T01:06:24;7.38;;;2.15;;
72728;SDS011;60843;52.062;4.508;2022-12-20T01:08:50;4.30;;;2.50;;
72728;SDS011;60843;52.062;4.508;2022-12-20T01:11:18;4.43;;;2.00;;
72728;SDS011;60843;52.062;4.508;2022-12-20T01:13:45;4.88;;;2.05;;
72728;SDS011;60843;52.062;4.508;2022-12-20T01:16:35;5.22;;;2.58;;
72728;SDS011;60843;52.062;4.508;2022-12-20T01:19:16;4.35;;;1.95;;
72728;SDS011;60843;52.062;4.508;2022-12-20T01:21:42;4.95;;;2.30;;
72728;SDS011;60843;52.062;4.508;2022-12-20T01:26:36;4.93;;;1.80;;
72728;SDS011;60843;52.062;4.508;2022-12-20T01:29:02;6.85;;;2.13;;
72728;SDS011;60843;52.062;4.508;2022-12-20T01:31:28;5.10;;;2.22;;
72728;SDS011;60843;52.062;4.508;2022-12-20T01:33:53;5.28;;;2.10;;
72728;SDS011;60843;52.062;4.508;2022-12-20T01:36:20;5.28;;;2.28;;
72728;SDS011;60843;52.062;4.508;2022-12-20T01:38:49;4.45;;;2.47;;
72728;SDS011;60843;52.062;4.508;2022-12-20T01:41:18;4.05;;;1.83;;
72728;SDS011;60843;52.062;4.508;2022-12-20T01:46:28;4.97;;;2.08;;
72728;SDS011;60843;52.062;4.508;2022-12-20T01:48:58;5.22;;;2.13;;
72728;SDS011;60843;52.062;4.508;2022-12-20T01:51:31;3.45;;;1.95;;
72728;SDS011;60843;52.062;4.508;2022-12-20T01:54:00;8.48;;;2.47;;
72728;SDS011;60843;52.062;4.508;2022-12-20T01:56:32;3.78;;;2.03;;
72728;SDS011;60843;52.062;4.508;2022-12-20T01:58:58;4.75;;;2.33;;
72728;SDS011;60843;52.062;4.508;2022-12-20T02:01:24;5.13;;;2.60;;
72728;SDS011;60843;52.062;4.508;2022-12-20T02:03:50;6.95;;;2.50;;
72728;SDS011;60843;52.062;4.508;2022-12-20T02:06:21;4.47;;;2.42;;
72728;SDS011;60843;52.062;4.508;2022-12-20T02:08:48;5.30;;;2.33;;
72728;SDS011;60843;52.062;4.508;2022-12-20T02:16:22;3.30;;;1.90;;
72728;SDS011;60843;52.062;4.508;2022-12-20T02:18:59;8.15;;;2.53;;
72728;SDS011;60843;52.062;4.508;2022-12-20T02:22:02;5.18;;;2.60;;
72728;SDS011;60843;52.062;4.508;2022-12-20T02:30:10;4.93;;;2.70;;
72728;SDS011;60843;52.062;4.508;2022-12-20T02:33:02;5.32;;;2.78;;
72728;SDS011;60843;52.062;4.508;2022-12-20T02:35:30;4.07;;;2.60;;
72728;SDS011;60843;52.062;4.508;2022-12-20T02:37:58;5.47;;;2.45;;
72728;SDS011;60843;52.062;4.508;2022-12-20T02:40:36;5.50;;;2.70;;
72728;SDS011;60843;52.062;4.508;2022-12-20T02:43:05;3.63;;;1.98;;
72728;SDS011;60843;52.062;4.508;2022-12-20T02:45:50;5.80;;;2.95;;
72728;SDS011;60843;52.062;4.508;2022-12-20T02:48:16;6.80;;;2.97;;
72728;SDS011;60843;52.062;4.508;2022-12-20T02:50:45;4.68;;;2.75;;
72728;SDS011;60843;52.062;4.508;2022-12-20T02:53:14;4.30;;;2.35;;
72728;SDS011;60843;52.062;4.508;2022-12-20T02:55:41;4.88;;;2.60;;
72728;SDS011;60843;52.062;4.508;2022-12-20T02:58:12;5.28;;;2.50;;
72728;SDS011;60843;52.062;4.508;2022-12-20T03:00:48;4.32;;;2.53;;
72728;SDS011;60843;52.062;4.508;2022-12-20T03:03:15;4.10;;;2.47;;
72728;SDS011;60843;52.062;4.508;2022-12-20T03:05:46;5.53;;;2.83;;
72728;SDS011;60843;52.062;4.508;2022-12-20T03:08:12;3.92;;;2.13;;
72728;SDS011;60843;52.062;4.508;2022-12-20T03:10:38;10.10;;;2.53;;
72728;SDS011;60843;52.062;4.508;2022-12-20T03:13:03;3.22;;;2.13;;
72728;SDS011;60843;52.062;4.508;2022-12-20T03:15:28;4.68;;;2.30;;
72728;SDS011;60843;52.062;4.508;2022-12-20T03:17:54;5.27;;;2.17;;
72728;SDS011;60843;52.062;4.508;2022-12-20T03:20:19;5.83;;;2.60;;
72728;SDS011;60843;52.062;4.508;2022-12-20T03:22:44;6.20;;;2.27;;
72728;SDS011;60843;52.062;4.508;2022-12-20T03:25:10;6.07;;;2.58;;
72728;SDS011;60843;52.062;4.508;2022-12-20T03:27:35;5.32;;;2.40;;
72728;SDS011;60843;52.062;4.508;2022-12-20T03:30:02;5.35;;;1.92;;
72728;SDS011;60843;52.062;4.508;2022-12-20T03:32:28;7.50;;;2.17;;
72728;SDS011;60843;52.062;4.508;2022-12-20T03:34:54;4.63;;;2.40;;
72728;SDS011;60843;52.062;4.508;2022-12-20T03:37:20;8.48;;;2.65;;
72728;SDS011;60843;52.062;4.508;2022-12-20T03:39:45;5.50;;;1.95;;
72728;SDS011;60843;52.062;4.508;2022-12-20T03:42:11;3.88;;;2.00;;
72728;SDS011;60843;52.062;4.508;2022-12-20T03:44:36;4.15;;;1.95;;
72728;SDS011;60843;52.062;4.508;2022-12-20T03:47:02;6.23;;;2.33;;
72728;SDS011;60843;52.062;4.508;2022-12-20T03:49:27;3.33;;;1.95;;
72728;SDS011;60843;52.062;4.508;2022-12-20T03:51:52;2.97;;;2.07;;
72728;SDS011;60843;52.062;4.508;2022-12-20T03:54:18;3.70;;;1.85;;
72728;SDS011;60843;52.062;4.508;2022-12-20T03:56:44;5.50;;;2.00;;
72728;SDS011;60843;52.062;4.508;2022-12-20T03:59:09;5.50;;;1.93;;
72728;SDS011;60843;52.062;4.508;2022-12-20T04:01:34;6.85;;;2.20;;
72728;SDS011;60843;52.062;4.508;2022-12-20T04:04:01;3.65;;;1.90;;
72728;SDS011;60843;52.062;4.508;2022-12-20T04:06:26;2.53;;;1.65;;
72728;SDS011;60843;52.062;4.508;2022-12-20T04:08:52;6.72;;;2.13;;
72728;SDS011;60843;52.062;4.508;2022-12-20T04:11:17;4.35;;;2.13;;
72728;SDS011;60843;52.062;4.508;2022-12-20T04:13:44;3.22;;;2.20;;
72728;SDS011;60843;52.062;4.508;2022-12-20T04:16:14;4.22;;;1.48;;
72728;SDS011;60843;52.062;4.508;2022-12-20T04:18:41;3.88;;;2.40;;
72728;SDS011;60843;52.062;4.508;2022-12-20T04:21:07;4.47;;;1.90;;
72728;SDS011;60843;52.062;4.508;2022-12-20T04:23:33;4.63;;;1.92;;
72728;SDS011;60843;52.062;4.508;2022-12-20T04:26:00;3.05;;;1.67;;
72728;SDS011;60843;52.062;4.508;2022-12-20T04:28:26;4.30;;;1.90;;
72728;SDS011;60843;52.062;4.508;2022-12-20T04:30:52;3.38;;;2.15;;
72728;SDS011;60843;52.062;4.508;2022-12-20T04:33:17;4.67;;;1.97;;
72728;SDS011;60843;52.062;4.508;2022-12-20T04:35:43;6.73;;;2.00;;
72728;SDS011;60843;52.062;4.508;2022-12-20T04:38:08;5.47;;;2.57;;
72728;SDS011;60843;52.062;4.508;2022-12-20T04:40:33;4.75;;;2.72;;
72728;SDS011;60843;52.062;4.508;2022-12-20T04:42:59;6.60;;;2.45;;
72728;SDS011;60843;52.062;4.508;2022-12-20T04:45:24;3.53;;;1.77;;
72728;SDS011;60843;52.062;4.508;2022-12-20T04:47:49;3.47;;;2.33;;
72728;SDS011;60843;52.062;4.508;2022-12-20T04:50:15;3.83;;;2.80;;
72728;SDS011;60843;52.062;4.508;2022-12-20T04:52:40;3.43;;;2.17;;
72728;SDS011;60843;52.062;4.508;2022-12-20T04:55:24;5.03;;;2.53;;
72728;SDS011;60843;52.062;4.508;2022-12-20T04:57:50;6.00;;;2.40;;
72728;SDS011;60843;52.062;4.508;2022-12-20T05:00:15;3.97;;;2.20;;
72728;SDS011;60843;52.062;4.508;2022-12-20T05:02:41;4.15;;;2.00;;
72728;SDS011;60843;52.062;4.508;2022-12-20T05:05:06;3.78;;;1.85;;
72728;SDS011;60843;52.062;4.508;2022-12-20T05:07:32;4.55;;;2.05;;
72728;SDS011;60843;52.062;4.508;2022-12-20T05:09:57;4.90;;;2.20;;
72728;SDS011;60843;52.062;4.508;2022-12-20T05:12:23;4.80;;;2.00;;
72728;SDS011;60843;52.062;4.508;2022-12-20T05:14:48;3.40;;;2.03;;
72728;SDS011;60843;52.062;4.508;2022-12-20T05:17:13;4.38;;;2.20;;
72728;SDS011;60843;52.062;4.508;2022-12-20T05:19:39;6.73;;;2.50;;
72728;SDS011;60843;52.062;4.508;2022-12-20T05:22:04;3.13;;;1.83;;
72728;SDS011;60843;52.062;4.508;2022-12-20T05:24:48;4.35;;;2.50;;
72728;SDS011;60843;52.062;4.508;2022-12-20T05:27:32;5.68;;;2.22;;
72728;SDS011;60843;52.062;4.508;2022-12-20T05:29:57;4.50;;;2.30;;
72728;SDS011;60843;52.062;4.508;2022-12-20T05:32:23;5.03;;;2.13;;
72728;SDS011;60843;52.062;4.508;2022-12-20T05:34:48;3.20;;;2.07;;
72728;SDS011;60843;52.062;4.508;2022-12-20T05:37:14;2.70;;;1.52;;
72728;SDS011;60843;52.062;4.508;2022-12-20T05:39:39;5.65;;;2.13;;
72728;SDS011;60843;52.062;4.508;2022-12-20T05:42:04;3.73;;;2.27;;
72728;SDS011;60843;52.062;4.508;2022-12-20T05:44:30;6.17;;;2.10;;
72728;SDS011;60843;52.062;4.508;2022-12-20T05:46:55;5.03;;;2.25;;
72728;SDS011;60843;52.062;4.508;2022-12-20T05:49:20;6.27;;;2.13;;
72728;SDS011;60843;52.062;4.508;2022-12-20T05:51:46;4.70;;;2.07;;
72728;SDS011;60843;52.062;4.508;2022-12-20T05:54:11;4.47;;;2.40;;
72728;SDS011;60843;52.062;4.508;2022-12-20T05:56:36;3.70;;;2.20;;
72728;SDS011;60843;52.062;4.508;2022-12-20T05:59:02;3.73;;;2.07;;
72728;SDS011;60843;52.062;4.508;2022-12-20T06:01:27;4.47;;;2.20;;
72728;SDS011;60843;52.062;4.508;2022-12-20T06:03:52;3.33;;;2.00;;
72728;SDS011;60843;52.062;4.508;2022-12-20T06:06:18;2.80;;;1.90;;
72728;SDS011;60843;52.062;4.508;2022-12-20T06:08:43;3.83;;;1.87;;
72728;SDS011;60843;52.062;4.508;2022-12-20T06:11:09;6.50;;;2.40;;
72728;SDS011;60843;52.062;4.508;2022-12-20T06:13:34;3.97;;;2.25;;
72728;SDS011;60843;52.062;4.508;2022-12-20T06:16:00;5.05;;;2.17;;
72728;SDS011;60843;52.062;4.508;2022-12-20T06:18:25;4.05;;;2.25;;
72728;SDS011;60843;52.062;4.508;2022-12-20T06:20:51;5.15;;;2.22;;
72728;SDS011;60843;52.062;4.508;2022-12-20T06:23:18;2.83;;;1.90;;
72728;SDS011;60843;52.062;4.508;2022-12-20T06:25:44;5.78;;;2.17;;
72728;SDS011;60843;52.062;4.508;2022-12-20T06:28:10;4.60;;;2.20;;
72728;SDS011;60843;52.062;4.508;2022-12-20T06:30:35;6.38;;;2.08;;
72728;SDS011;60843;52.062;4.508;2022-12-20T06:33:01;5.55;;;2.03;;
72728;SDS011;60843;52.062;4.508;2022-12-20T06:35:27;4.78;;;2.35;;
72728;SDS011;60843;52.062;4.508;2022-12-20T06:37:53;6.05;;;2.20;;
72728;SDS011;60843;52.062;4.508;2022-12-20T06:40:18;3.80;;;2.42;;
72728;SDS011;60843;52.062;4.508;2022-12-20T06:42:44;6.07;;;2.13;;
72728;SDS011;60843;52.062;4.508;2022-12-20T06:45:09;5.50;;;2.10;;
72728;SDS011;60843;52.062;4.508;2022-12-20T06:47:35;3.55;;;2.03;;
72728;SDS011;60843;52.062;4.508;2022-12-20T06:50:01;3.40;;;1.90;;
72728;SDS011;60843;52.062;4.508;2022-12-20T06:52:26;3.08;;;1.85;;
72728;SDS011;60843;52.062;4.508;2022-12-20T06:54:52;4.55;;;2.30;;
72728;SDS011;60843;52.062;4.508;2022-12-20T06:57:17;4.97;;;1.73;;
72728;SDS011;60843;52.062;4.508;2022-12-20T06:59:43;6.25;;;2.60;;
72728;SDS011;60843;52.062;4.508;2022-12-20T07:02:10;4.05;;;1.80;;
72728;SDS011;60843;52.062;4.508;2022-12-20T07:04:35;4.07;;;1.80;;
72728;SDS011;60843;52.062;4.508;2022-12-20T07:07:02;4.65;;;2.25;;
72728;SDS011;60843;52.062;4.508;2022-12-20T07:09:27;3.63;;;2.15;;
72728;SDS011;60843;52.062;4.508;2022-12-20T07:11:54;4.78;;;2.20;;
72728;SDS011;60843;52.062;4.508;2022-12-20T07:14:19;3.88;;;1.92;;
72728;SDS011;60843;52.062;4.508;2022-12-20T07:16:45;4.75;;;1.83;;
72728;SDS011;60843;52.062;4.508;2022-12-20T07:19:11;4.05;;;1.85;;
72728;SDS011;60843;52.062;4.508;2022-12-20T07:21:36;7.32;;;2.00;;
72728;SDS011;60843;52.062;4.508;2022-12-20T07:24:02;3.25;;;1.45;;
72728;SDS011;60843;52.062;4.508;2022-12-20T07:26:28;4.90;;;1.83;;
72728;SDS011;60843;52.062;4.508;2022-12-20T07:28:53;3.15;;;1.65;;
72728;SDS011;60843;52.062;4.508;2022-12-20T07:31:19;3.25;;;1.67;;
72728;SDS011;60843;52.062;4.508;2022-12-20T07:33:44;5.50;;;1.88;;
72728;SDS011;60843;52.062;4.508;2022-12-20T07:36:10;3.10;;;1.70;;
72728;SDS011;60843;52.062;4.508;2022-12-20T07:38:36;5.50;;;1.67;;
72728;SDS011;60843;52.062;4.508;2022-12-20T07:41:12;3.60;;;1.60;;
72728;SDS011;60843;52.062;4.508;2022-12-20T07:43:39;5.60;;;2.00;;
72728;SDS011;60843;52.062;4.508;2022-12-20T07:46:05;6.43;;;2.20;;
72728;SDS011;60843;52.062;4.508;2022-12-20T07:48:31;4.07;;;1.80;;
72728;SDS011;60843;52.062;4.508;2022-12-20T07:50:58;3.35;;;1.80;;
72728;SDS011;60843;52.062;4.508;2022-12-20T07:53:26;2.42;;;1.92;;
72728;SDS011;60843;52.062;4.508;2022-12-20T07:55:52;4.82;;;2.13;;
72728;SDS011;60843;52.062;4.508;2022-12-20T07:58:18;4.20;;;2.13;;
72728;SDS011;60843;52.062;4.508;2022-12-20T08:00:44;4.13;;;1.92;;
72728;SDS011;60843;52.062;4.508;2022-12-20T08:05:39;5.40;;;1.55;;
72728;SDS011;60843;52.062;4.508;2022-12-20T08:08:06;6.97;;;2.08;;
72728;SDS011;60843;52.062;4.508;2022-12-20T08:10:32;4.88;;;1.75;;
72728;SDS011;60843;52.062;4.508;2022-12-20T08:12:58;4.90;;;1.73;;
72728;SDS011;60843;52.062;4.508;2022-12-20T08:15:24;5.35;;;2.40;;
72728;SDS011;60843;52.062;4.508;2022-12-20T08:17:50;3.72;;;1.73;;
72728;SDS011;60843;52.062;4.508;2022-12-20T08:20:16;6.75;;;2.08;;
72728;SDS011;60843;52.062;4.508;2022-12-20T08:22:42;4.95;;;1.73;;
72728;SDS011;60843;52.062;4.508;2022-12-20T08:25:07;4.95;;;1.88;;
72728;SDS011;60843;52.062;4.508;2022-12-20T08:27:33;5.60;;;1.98;;
72728;SDS011;60843;52.062;4.508;2022-12-20T08:29:59;3.83;;;1.50;;
72728;SDS011;60843;52.062;4.508;2022-12-20T08:32:24;4.78;;;2.00;;
72728;SDS011;60843;52.062;4.508;2022-12-20T08:34:51;4.85;;;2.00;;
72728;SDS011;60843;52.062;4.508;2022-12-20T08:37:16;4.57;;;1.50;;
72728;SDS011;60843;52.062;4.508;2022-12-20T08:39:42;5.88;;;1.65;;
72728;SDS011;60843;52.062;4.508;2022-12-20T08:42:07;5.22;;;1.85;;
72728;SDS011;60843;52.062;4.508;2022-12-20T08:44:33;2.38;;;1.50;;
72728;SDS011;60843;52.062;4.508;2022-12-20T08:46:58;7.55;;;1.80;;
72728;SDS011;60843;52.062;4.508;2022-12-20T08:49:23;4.05;;;1.63;;
72728;SDS011;60843;52.062;4.508;2022-12-20T08:51:49;11.55;;;2.33;;
72728;SDS011;60843;52.062;4.508;2022-12-20T08:54:14;4.85;;;1.75;;
72728;SDS011;60843;52.062;4.508;2022-12-20T08:56:41;8.60;;;1.92;;
72728;SDS011;60843;52.062;4.508;2022-12-20T08:59:07;2.42;;;1.40;;
72728;SDS011;60843;52.062;4.508;2022-12-20T09:01:32;3.13;;;1.35;;
72728;SDS011;60843;52.062;4.508;2022-12-20T09:03:58;2.70;;;1.50;;
72728;SDS011;60843;52.062;4.508;2022-12-20T09:06:23;6.03;;;2.00;;
72728;SDS011;60843;52.062;4.508;2022-12-20T09:08:49;7.47;;;2.20;;
72728;SDS011;60843;52.062;4.508;2022-12-20T09:11:16;3.63;;;2.03;;
72728;SDS011;60843;52.062;4.508;2022-12-20T09:13:44;5.07;;;2.00;;
72728;SDS011;60843;52.062;4.508;2022-12-20T09:16:12;3.42;;;1.88;;
72728;SDS011;60843;52.062;4.508;2022-12-20T09:18:39;4.70;;;1.85;;
72728;SDS011;60843;52.062;4.508;2022-12-20T09:21:05;6.22;;;2.42;;
72728;SDS011;60843;52.062;4.508;2022-12-20T09:23:32;5.00;;;1.83;;
72728;SDS011;60843;52.062;4.508;2022-12-20T09:26:17;6.97;;;2.80;;
72728;SDS011;60843;52.062;4.508;2022-12-20T09:28:43;4.90;;;1.98;;
72728;SDS011;60843;52.062;4.508;2022-12-20T09:31:13;5.00;;;1.95;;
72728;SDS011;60843;52.062;4.508;2022-12-20T09:33:39;3.92;;;1.85;;
72728;SDS011;60843;52.062;4.508;2022-12-20T09:36:05;7.80;;;1.67;;
72728;SDS011;60843;52.062;4.508;2022-12-20T09:38:31;4.45;;;2.03;;
72728;SDS011;60843;52.062;4.508;2022-12-20T09:40:59;4.72;;;2.10;;
72728;SDS011;60843;52.062;4.508;2022-12-20T09:43:26;3.95;;;1.92;;
72728;SDS011;60843;52.062;4.508;2022-12-20T09:45:56;5.10;;;2.15;;
72728;SDS011;60843;52.062;4.508;2022-12-20T09:58:56;4.93;;;2.25;;
72728;SDS011;60843;52.062;4.508;2022-12-20T10:01:26;5.07;;;2.05;;
72728;SDS011;60843;52.062;4.508;2022-12-20T10:03:54;11.77;;;2.33;;
72728;SDS011;60843;52.062;4.508;2022-12-20T10:06:30;7.93;;;2.47;;
72728;SDS011;60843;52.062;4.508;2022-12-20T10:20:36;3.10;;;1.63;;
72728;SDS011;60843;52.062;4.508;2022-12-20T10:28:27;2.60;;;1.60;;
72728;SDS011;60843;52.062;4.508;2022-12-20T10:30:56;7.90;;;2.20;;
72728;SDS011;60843;52.062;4.508;2022-12-20T10:33:23;4.55;;;2.47;;
72728;SDS011;60843;52.062;4.508;2022-12-20T10:35:48;4.70;;;2.00;;
72728;SDS011;60843;52.062;4.508;2022-12-20T10:38:15;5.65;;;2.70;;
72728;SDS011;60843;52.062;4.508;2022-12-20T10:40:43;5.38;;;2.45;;
72728;SDS011;60843;52.062;4.508;2022-12-20T10:43:15;5.03;;;2.17;;
72728;SDS011;60843;52.062;4.508;2022-12-20T10:45:42;8.18;;;2.70;;
72728;SDS011;60843;52.062;4.508;2022-12-20T10:50:54;4.63;;;1.95;;
72728;SDS011;60843;52.062;4.508;2022-12-20T10:53:24;4.10;;;2.60;;
72728;SDS011;60843;52.062;4.508;2022-12-20T10:55:51;5.88;;;2.50;;
72728;SDS011;60843;52.062;4.508;2022-12-20T11:01:02;6.10;;;2.42;;
72728;SDS011;60843;52.062;4.508;2022-12-20T11:03:48;8.05;;;3.33;;
72728;SDS011;60843;52.062;4.508;2022-12-20T11:06:18;6.55;;;2.50;;
72728;SDS011;60843;52.062;4.508;2022-12-20T11:08:45;9.75;;;3.10;;
72728;SDS011;60843;52.062;4.508;2022-12-20T11:11:14;6.25;;;3.00;;
72728;SDS011;60843;52.062;4.508;2022-12-20T11:13:44;5.75;;;2.92;;
72728;SDS011;60843;52.062;4.508;2022-12-20T11:19:01;7.03;;;3.60;;
72728;SDS011;60843;52.062;4.508;2022-12-20T11:22:51;5.15;;;2.92;;
72728;SDS011;60843;52.062;4.508;2022-12-20T11:36:02;7.68;;;3.33;;
72728;SDS011;60843;52.062;4.508;2022-12-20T11:52:08;10.23;;;4.57;;
72728;SDS011;60843;52.062;4.508;2022-12-20T11:55:03;10.15;;;4.03;;
72728;SDS011;60843;52.062;4.508;2022-12-20T12:00:00;9.18;;;4.55;;
72728;SDS011;60843;52.062;4.508;2022-12-20T12:02:27;7.63;;;4.00;;
72728;SDS011;60843;52.062;4.508;2022-12-20T12:05:05;10.00;;;5.13;;
72728;SDS011;60843;52.062;4.508;2022-12-20T12:07:35;7.35;;;4.57;;
72728;SDS011;60843;52.062;4.508;2022-12-20T12:10:18;8.52;;;4.75;;
72728;SDS011;60843;52.062;4.508;2022-12-20T12:18:42;7.60;;;4.05;;
72728;SDS011;60843;52.062;4.508;2022-12-20T12:23:57;7.18;;;4.22;;
72728;SDS011;60843;52.062;4.508;2022-12-20T12:26:35;11.10;;;6.28;;
72728;SDS011;60843;52.062;4.508;2022-12-20T12:29:13;7.38;;;5.00;;
72728;SDS011;60843;52.062;4.508;2022-12-20T12:31:41;8.93;;;4.80;;
72728;SDS011;60843;52.062;4.508;2022-12-20T12:41:57;8.60;;;4.32;;
72728;SDS011;60843;52.062;4.508;2022-12-20T12:47:19;12.48;;;5.45;;
72728;SDS011;60843;52.062;4.508;2022-12-20T12:49:48;12.95;;;4.93;;
72728;SDS011;60843;52.062;4.508;2022-12-20T12:55:34;11.52;;;5.40;;
72728;SDS011;60843;52.062;4.508;2022-12-20T13:01:10;6.88;;;4.65;;
72728;SDS011;60843;52.062;4.508;2022-12-20T13:03:37;8.18;;;4.68;;
72728;SDS011;60843;52.062;4.508;2022-12-20T13:11:39;11.95;;;5.68;;
72728;SDS011;60843;52.062;4.508;2022-12-20T13:16:49;8.73;;;5.68;;
72728;SDS011;60843;52.062;4.508;2022-12-20T13:21:57;19.25;;;8.70;;
72728;SDS011;60843;52.062;4.508;2022-12-20T13:26:59;8.38;;;5.45;;
72728;SDS011;60843;52.062;4.508;2022-12-20T13:29:26;7.13;;;5.03;;
72728;SDS011;60843;52.062;4.508;2022-12-20T13:31:56;14.20;;;5.82;;
72728;SDS011;60843;52.062;4.508;2022-12-20T13:34:37;8.45;;;5.40;;
72728;SDS011;60843;52.062;4.508;2022-12-20T13:39:53;13.90;;;6.40;;
72728;SDS011;60843;52.062;4.508;2022-12-20T13:42:33;10.23;;;5.30;;
72728;SDS011;60843;52.062;4.508;2022-12-20T13:45:03;11.05;;;5.45;;
72728;SDS011;60843;52.062;4.508;2022-12-20T13:47:36;11.38;;;6.32;;
72728;SDS011;60843;52.062;4.508;2022-12-20T13:53:15;11.13;;;6.03;;
72728;SDS011;60843;52.062;4.508;2022-12-20T13:55:42;9.18;;;5.15;;
72728;SDS011;60843;52.062;4.508;2022-12-20T13:58:10;11.60;;;5.22;;
72728;SDS011;60843;52.062;4.508;2022-12-20T14:00:38;10.93;;;5.88;;
72728;SDS011;60843;52.062;4.508;2022-12-20T14:03:04;12.20;;;6.03;;
72728;SDS011;60843;52.062;4.508;2022-12-20T14:05:38;10.80;;;6.13;;
72728;SDS011;60843;52.062;4.508;2022-12-20T14:08:22;9.38;;;5.97;;
72728;SDS011;60843;52.062;4.508;2022-12-20T14:10:51;10.80;;;6.32;;
72728;SDS011;60843;52.062;4.508;2022-12-20T14:13:21;12.23;;;6.72;;
72728;SDS011;60843;52.062;4.508;2022-12-20T14:15:48;9.27;;;5.68;;
72728;SDS011;60843;52.062;4.508;2022-12-20T14:18:18;10.02;;;5.93;;
72728;SDS011;60843;52.062;4.508;2022-12-20T14:20:46;14.25;;;6.40;;
72728;SDS011;60843;52.062;4.508;2022-12-20T14:26:05;10.50;;;6.50;;
72728;SDS011;60843;52.062;4.508;2022-12-20T14:31:01;11.70;;;6.75;;
72728;SDS011;60843;52.062;4.508;2022-12-20T14:33:37;15.25;;;7.90;;
72728;SDS011;60843;52.062;4.508;2022-12-20T14:36:08;12.75;;;7.22;;
72728;SDS011;60843;52.062;4.508;2022-12-20T14:38:40;12.57;;;7.43;;
72728;SDS011;60843;52.062;4.508;2022-12-20T14:41:27;15.45;;;7.75;;
72728;SDS011;60843;52.062;4.508;2022-12-20T14:43:55;13.52;;;7.63;;
72728;SDS011;60843;52.062;4.508;2022-12-20T14:46:21;12.30;;;7.63;;
72728;SDS011;60843;52.062;4.508;2022-12-20T14:48:47;13.45;;;8.25;;
72728;SDS011;60843;52.062;4.508;2022-12-20T14:51:18;14.45;;;7.82;;
72728;SDS011;60843;52.062;4.508;2022-12-20T14:53:44;11.07;;;7.10;;
72728;SDS011;60843;52.062;4.508;2022-12-20T14:56:18;11.70;;;6.95;;
72728;SDS011;60843;52.062;4.508;2022-12-20T14:58:44;16.13;;;8.10;;
72728;SDS011;60843;52.062;4.508;2022-12-20T15:03:47;13.35;;;7.90;;
72728;SDS011;60843;52.062;4.508;2022-12-20T15:06:29;12.32;;;7.90;;
72728;SDS011;60843;52.062;4.508;2022-12-20T15:08:55;16.30;;;7.10;;
72728;SDS011;60843;52.062;4.508;2022-12-20T15:11:21;13.98;;;7.45;;
72728;SDS011;60843;52.062;4.508;2022-12-20T15:13:46;15.43;;;8.80;;
72728;SDS011;60843;52.062;4.508;2022-12-20T15:16:16;18.05;;;8.75;;
72728;SDS011;60843;52.062;4.508;2022-12-20T15:18:49;14.05;;;8.02;;
72728;SDS011;60843;52.062;4.508;2022-12-20T15:21:32;12.25;;;7.40;;
72728;SDS011;60843;52.062;4.508;2022-12-20T15:24:01;15.20;;;8.75;;
72728;SDS011;60843;52.062;4.508;2022-12-20T15:26:31;12.23;;;8.10;;
72728;SDS011;60843;52.062;4.508;2022-12-20T15:28:57;13.25;;;7.63;;
72728;SDS011;60843;52.062;4.508;2022-12-20T15:31:23;13.02;;;8.00;;
72728;SDS011;60843;52.062;4.508;2022-12-20T15:33:49;17.70;;;8.05;;
72728;SDS011;60843;52.062;4.508;2022-12-20T15:36:22;14.13;;;8.50;;
72728;SDS011;60843;52.062;4.508;2022-12-20T15:38:52;14.57;;;8.00;;
72728;SDS011;60843;52.062;4.508;2022-12-20T15:41:19;14.18;;;7.97;;
72728;SDS011;60843;52.062;4.508;2022-12-20T15:43:45;14.07;;;8.52;;
72728;SDS011;60843;52.062;4.508;2022-12-20T15:46:11;21.52;;;10.70;;
72728;SDS011;60843;52.062;4.508;2022-12-20T15:48:38;20.20;;;10.05;;
72728;SDS011;60843;52.062;4.508;2022-12-20T15:51:10;56.67;;;20.27;;
72728;SDS011;60843;52.062;4.508;2022-12-20T15:53:39;14.93;;;8.23;;
72728;SDS011;60843;52.062;4.508;2022-12-20T15:56:04;35.03;;;13.80;;
72728;SDS011;60843;52.062;4.508;2022-12-20T15:58:30;16.00;;;9.57;;
72728;SDS011;60843;52.062;4.508;2022-12-20T16:00:57;15.88;;;9.63;;
72728;SDS011;60843;52.062;4.508;2022-12-20T16:03:31;15.35;;;8.93;;
72728;SDS011;60843;52.062;4.508;2022-12-20T16:05:56;15.55;;;8.55;;
72728;SDS011;60843;52.062;4.508;2022-12-20T16:08:22;13.23;;;8.32;;
72728;SDS011;60843;52.062;4.508;2022-12-20T16:10:48;12.23;;;7.85;;
72728;SDS011;60843;52.062;4.508;2022-12-20T16:13:16;14.82;;;8.15;;
72728;SDS011;60843;52.062;4.508;2022-12-20T16:15:45;16.70;;;9.50;;
72728;SDS011;60843;52.062;4.508;2022-12-20T16:18:11;13.23;;;7.60;;
72728;SDS011;60843;52.062;4.508;2022-12-20T16:20:36;12.43;;;7.75;;
72728;SDS011;60843;52.062;4.508;2022-12-20T16:23:03;12.20;;;7.50;;
72728;SDS011;60843;52.062;4.508;2022-12-20T16:25:33;13.25;;;8.02;;
72728;SDS011;60843;52.062;4.508;2022-12-20T16:28:07;15.43;;;8.50;;
72728;SDS011;60843;52.062;4.508;2022-12-20T16:30:32;16.05;;;8.18;;
72728;SDS011;60843;52.062;4.508;2022-12-20T16:32:58;17.05;;;9.23;;
72728;SDS011;60843;52.062;4.508;2022-12-20T16:35:25;18.77;;;8.63;;
72728;SDS011;60843;52.062;4.508;2022-12-20T16:37:53;17.80;;;9.05;;
72728;SDS011;60843;52.062;4.508;2022-12-20T16:40:20;18.23;;;9.55;;
72728;SDS011;60843;52.062;4.508;2022-12-20T16:42:47;15.82;;;9.10;;
72728;SDS011;60843;52.062;4.508;2022-12-20T16:45:17;13.43;;;8.38;;
72728;SDS011;60843;52.062;4.508;2022-12-20T16:47:45;13.77;;;8.23;;
72728;SDS011;60843;52.062;4.508;2022-12-20T16:50:11;18.80;;;9.55;;
72728;SDS011;60843;52.062;4.508;2022-12-20T16:52:37;18.75;;;9.70;;
72728;SDS011;60843;52.062;4.508;2022-12-20T16:55:03;19.20;;;9.32;;
72728;SDS011;60843;52.062;4.508;2022-12-20T16:57:29;17.27;;;9.00;;
72728;SDS011;60843;52.062;4.508;2022-12-20T16:59:55;15.73;;;9.32;;
72728;SDS011;60843;52.062;4.508;2022-12-20T17:02:28;17.55;;;8.77;;